Time;durP1;ratioP1;P1;durP2;ratioP2;P2;SDS_P1;SDS_P2;PMS_P1;PMS_P2;Temp;Humidity;BMP_temperature;BMP_pressure;BME280_temperature;BME280_humidity;BME280_pressure;Samples;Min_cycle;Max_cycle;Signal;HPM_P1;HPM_P2
2022/09/19 00:00:24;;;;;;;0.40;0.20;;;;;;;11.04;64.55;98384.86;24988;1321;3026384;-66
2022/09/19 00:02:54;;;;;;;0.30;0.10;;;;;;;11.04;64.21;98392.05;24981;1321;3049225;-68
2022/09/19 00:05:22;;;;;;;0.50;0.30;;;;;;;10.76;64.82;98384.29;25051;1321;3028841;-68
2022/09/19 00:07:53;;;;;;;0.10;0.10;;;;;;;10.63;65.36;98386.70;25012;1321;3026480;-67
2022/09/19 00:10:22;;;;;;;0.20;0.10;;;;;;;10.59;65.55;98395.09;25009;1321;3027246;-67
2022/09/19 00:12:55;;;;;;;0.60;0.30;;;;;;;10.34;66.56;98396.77;25037;1321;3052035;-66
2022/09/19 00:15:28;;;;;;;0.40;0.30;;;;;;;10.20;66.98;98404.50;25012;1321;3054063;-68
2022/09/19 00:17:57;;;;;;;0.40;0.30;;;;;;;10.00;67.89;98402.27;24997;1321;3026613;-69
2022/09/19 00:20:26;;;;;;;1.10;0.30;;;;;;;10.11;67.36;98404.14;25039;1321;3026402;-70
2022/09/19 00:26:09;;;;;;;0.40;0.30;;;;;;;10.01;67.77;98399.92;24830;1327;3071540;-68
2022/09/19 00:28:38;;;;;;;0.50;0.30;;;;;;;10.01;67.78;98405.88;24820;1327;3049641;-68
2022/09/19 00:31:17;;;;;;;0.90;0.30;;;;;;;9.92;68.21;98407.96;24960;1321;3027038;-63
2022/09/19 00:33:47;;;;;;;0.40;0.20;;;;;;;9.89;68.38;98416.58;25038;1321;3070920;-64
2022/09/19 00:36:17;;;;;;;0.30;0.20;;;;;;;9.92;68.68;98407.30;24942;1321;3026749;-66
2022/09/19 00:38:45;;;;;;;0.40;0.30;;;;;;;10.68;67.39;98409.08;25007;1321;3026646;-67
2022/09/19 00:41:16;;;;;;;0.40;0.20;;;;;;;11.58;64.39;98418.25;25018;1321;3070566;-66
2022/09/19 00:43:56;;;;;;;0.30;0.20;;;;;;;11.36;63.58;98419.63;24980;1321;3027299;-66
2022/09/19 00:46:27;;;;;;;1.00;0.30;;;;;;;10.95;64.80;98429.40;25011;1321;3055338;-67
2022/09/19 00:48:59;;;;;;;0.10;0.10;;;;;;;10.74;65.60;98428.42;25071;1320;3026243;-66
2022/09/19 00:51:32;;;;;;;0.60;0.30;;;;;;;10.47;66.46;98424.02;25049;1319;3026268;-67
2022/09/19 00:54:03;;;;;;;0.90;0.30;;;;;;;10.42;66.69;98425.92;25020;1321;3027393;-65
2022/09/19 00:56:32;;;;;;;1.40;0.40;;;;;;;10.22;67.42;98429.14;25042;1321;3026390;-65
2022/09/19 00:59:01;;;;;;;0.80;0.40;;;;;;;10.16;67.74;98429.09;25012;1321;3026731;-66
2022/09/19 01:01:31;;;;;;;0.30;0.20;;;;;;;10.07;68.10;98429.90;25032;1321;3051594;-66
2022/09/19 01:04:01;;;;;;;0.20;0.20;;;;;;;9.87;69.18;98428.10;24988;1321;3026853;-65
2022/09/19 01:07:08;;;;;;;1.20;0.30;;;;;;;9.86;69.35;98425.39;25018;1321;3055542;-66
2022/09/19 01:09:39;;;;;;;0.70;0.30;;;;;;;9.80;69.51;98428.59;24989;1321;3052724;-65
2022/09/19 01:12:31;;;;;;;0.60;0.20;;;;;;;9.82;69.84;98430.54;25010;1320;3027108;-66
2022/09/19 01:15:12;;;;;;;0.20;0.20;;;;;;;10.54;68.36;98433.27;24998;1321;3053368;-67
2022/09/19 01:17:47;;;;;;;0.90;0.40;;;;;;;10.81;66.70;98433.29;25013;1321;3071596;-67
2022/09/19 01:20:48;;;;;;;0.70;0.30;;;;;;;10.92;66.19;98439.61;25014;1319;3026465;-65
2022/09/19 01:23:23;;;;;;;1.60;0.40;;;;;;;10.66;66.75;98447.79;24974;1321;3052055;-65
2022/09/19 01:26:18;;;;;;;2.50;0.30;;;;;;;10.52;66.92;98445.13;25051;1321;3052313;-67
2022/09/19 01:28:51;;;;;;;1.80;0.50;;;;;;;10.32;67.89;98445.91;25018;1321;3058015;-68
2022/09/19 01:31:27;;;;;;;1.50;0.30;;;;;;;10.12;68.70;98447.45;24906;1321;3026863;-66
2022/09/19 01:34:18;;;;;;;1.00;0.50;;;;;;;10.10;68.63;98442.70;25032;1321;3052264;-64
2022/09/19 01:36:58;;;;;;;0.40;0.40;;;;;;;10.09;68.56;98440.80;25011;1321;3053278;-66
2022/09/19 01:39:29;;;;;;;0.60;0.30;;;;;;;10.03;68.86;98440.74;24985;1321;3071210;-66
2022/09/19 01:42:00;;;;;;;0.70;0.50;;;;;;;9.86;69.79;98448.80;24987;1321;3026130;-67
2022/09/19 01:44:30;;;;;;;0.40;0.30;;;;;;;9.85;70.14;98458.11;25002;1321;3026781;-64
2022/09/19 01:47:27;;;;;;;0.20;0.20;;;;;;;10.61;68.46;98453.05;25037;1321;3027314;-67
2022/09/19 01:50:09;;;;;;;0.80;0.50;;;;;;;10.93;67.35;98450.56;25015;1321;3057036;-65
2022/09/19 01:52:49;;;;;;;0.50;0.30;;;;;;;10.91;66.87;98463.13;25019;1321;3050337;-66
2022/09/19 01:55:30;;;;;;;2.30;0.40;;;;;;;10.70;67.21;98464.41;25027;1321;3052730;-65
2022/09/19 01:58:12;;;;;;;0.40;0.40;;;;;;;10.42;68.27;98458.52;25054;1321;3054494;-65
2022/09/19 02:00:44;;;;;;;1.10;0.40;;;;;;;10.14;69.62;98460.73;24990;1321;3069044;-64
2022/09/19 02:03:22;;;;;;;1.00;0.70;;;;;;;10.15;69.44;98454.92;24994;1320;3026525;-65
2022/09/19 02:06:00;;;;;;;0.90;0.60;;;;;;;10.11;69.26;98456.56;25025;1321;3055137;-64
2022/09/19 02:08:35;;;;;;;0.60;0.50;;;;;;;9.91;70.64;98458.23;25059;1321;3055017;-65
2022/09/19 02:11:11;;;;;;;0.90;0.50;;;;;;;9.80;71.19;98460.25;24969;1321;3056632;-65
2022/09/19 02:13:44;;;;;;;0.40;0.40;;;;;;;9.78;71.11;98464.40;25018;1319;3049487;-67
2022/09/19 02:16:24;;;;;;;0.40;0.30;;;;;;;9.73;71.69;98469.88;25014;1321;3026727;-68
2022/09/19 02:18:56;;;;;;;1.20;0.50;;;;;;;10.58;69.96;98465.13;24984;1321;3051546;-66
2022/09/19 02:21:30;;;;;;;1.90;0.80;;;;;;;10.83;68.84;98463.44;25000;1321;3026449;-65
2022/09/19 02:24:06;;;;;;;1.10;0.80;;;;;;;10.93;68.01;98466.55;25007;1321;3048658;-67
2022/09/19 02:26:36;;;;;;;1.60;0.80;;;;;;;10.72;68.54;98473.20;24980;1318;3026479;-66
2022/09/19 02:29:05;;;;;;;1.90;0.80;;;;;;;10.52;69.09;98483.68;24940;1318;3026961;-65
2022/09/19 02:31:34;;;;;;;2.30;0.70;;;;;;;10.39;69.20;98480.58;24914;1319;3029689;-66
2022/09/19 02:34:05;;;;;;;2.10;0.80;;;;;;;10.38;69.06;98483.17;24983;1318;3026420;-65
2022/09/19 02:37:01;;;;;;;1.90;0.90;;;;;;;10.14;70.11;98482.46;25052;1319;3027991;-65
2022/09/19 02:39:33;;;;;;;2.70;1.20;;;;;;;9.95;70.63;98484.33;25017;1318;3052301;-65
2022/09/19 02:42:43;;;;;;;8.20;1.10;;;;;;;9.75;71.65;98486.73;25030;1318;3071303;-68
2022/09/19 02:45:17;;;;;;;1.20;0.70;;;;;;;9.72;72.59;98488.47;25022;1318;3051744;-67
2022/09/19 02:48:03;;;;;;;6.10;0.90;;;;;;;10.49;70.63;98485.45;25041;1318;3052780;-65
2022/09/19 02:50:41;;;;;;;2.40;0.60;;;;;;;11.05;68.48;98489.23;25062;1318;3052537;-66
2022/09/19 02:53:13;;;;;;;2.30;1.10;;;;;;;10.80;68.51;98490.45;25014;1318;3058552;-68
2022/09/19 02:55:46;;;;;;;2.80;1.00;;;;;;;10.48;69.42;98494.44;25066;1319;3026654;-68
2022/09/19 02:58:15;;;;;;;4.90;0.80;;;;;;;10.06;70.82;98500.71;25031;1318;3052214;-69
2022/09/19 03:00:46;;;;;;;2.70;1.00;;;;;;;9.94;71.04;98508.91;25077;1318;3026570;-69
2022/09/19 03:06:06;;;;;;;3.60;1.10;;;;;;;9.42;73.43;98512.33;25061;1320;3053301;-65
2022/09/19 03:08:36;;;;;;;1.90;0.70;;;;;;;9.42;73.06;98511.04;25001;1318;3026269;-70
2022/09/19 03:11:15;;;;;;;1.60;0.70;;;;;;;9.50;73.09;98509.13;24989;1318;3026534;-67
2022/09/19 03:13:45;;;;;;;3.10;1.10;;;;;;;9.81;72.56;98509.84;25043;1321;3052063;-67
2022/09/19 03:16:17;;;;;;;2.60;1.00;;;;;;;10.19;71.33;98510.26;25047;1318;3026492;-66
2022/09/19 03:18:46;;;;;;;3.30;1.00;;;;;;;10.19;71.04;98509.03;25043;1318;3026492;-65
2022/09/19 03:21:19;;;;;;;1.60;1.10;;;;;;;10.18;70.66;98512.95;25017;1318;3027198;-66
2022/09/19 03:23:51;;;;;;;2.00;1.10;;;;;;;9.79;72.07;98518.20;25009;1320;3026850;-67
2022/09/19 03:26:30;;;;;;;3.20;1.60;;;;;;;9.78;71.63;98528.79;24983;1318;3055141;-67
2022/09/19 03:29:00;;;;;;;1.60;1.10;;;;;;;9.45;73.08;98528.73;25007;1318;3053293;-65
2022/09/19 03:31:35;;;;;;;4.40;1.30;;;;;;;9.31;73.63;98531.11;24980;1318;3070397;-68
2022/09/19 03:34:06;;;;;;;1.20;0.60;;;;;;;9.29;73.95;98538.05;24990;1318;3026127;-65
2022/09/19 03:36:36;;;;;;;4.70;0.90;;;;;;;9.62;73.79;98537.59;24991;1318;3027439;-65
2022/09/19 03:39:06;;;;;;;2.60;1.30;;;;;;;10.08;72.41;98541.31;24980;1318;3027719;-66
2022/09/19 03:41:38;;;;;;;2.80;1.20;;;;;;;10.48;70.43;98548.58;25016;1318;3026491;-66
2022/09/19 03:44:08;;;;;;;3.30;1.50;;;;;;;9.77;72.34;98558.41;25025;1318;3027448;-68
2022/09/19 03:46:40;;;;;;;1.90;1.30;;;;;;;9.78;72.54;98573.39;25039;1318;3029083;-67
2022/09/19 03:49:10;;;;;;;1.90;1.00;;;;;;;9.65;73.11;98575.90;25002;1318;3026821;-66
2022/09/19 03:51:40;;;;;;;2.40;1.80;;;;;;;9.62;72.72;98577.86;25002;1318;3027326;-67
2022/09/19 03:54:10;;;;;;;1.50;1.20;;;;;;;9.39;74.00;98573.52;25003;1318;3026772;-67
2022/09/19 03:56:43;;;;;;;1.40;0.70;;;;;;;9.29;74.85;98573.70;25019;1318;3026466;-64
2022/09/19 03:59:12;;;;;;;1.60;0.90;;;;;;;10.03;73.50;98570.55;25019;1318;3026357;-66
2022/09/19 04:01:43;;;;;;;1.90;1.00;;;;;;;10.44;71.29;98582.61;25022;1319;3048999;-66
2022/09/19 04:04:12;;;;;;;1.70;1.00;;;;;;;10.45;70.78;98586.44;24967;1318;3028195;-66
2022/09/19 04:06:48;;;;;;;3.10;1.20;;;;;;;10.28;70.89;98592.56;25036;1318;3070605;-66
2022/09/19 04:09:17;;;;;;;1.90;1.20;;;;;;;9.98;71.96;98603.13;24970;1318;3026890;-67
2022/09/19 04:11:49;;;;;;;2.90;1.50;;;;;;;9.84;72.75;98616.48;25008;1318;3050875;-68
2022/09/19 04:14:18;;;;;;;3.70;1.50;;;;;;;9.64;73.60;98613.15;25037;1318;3026087;-67
2022/09/19 04:16:49;;;;;;;3.80;1.30;;;;;;;9.61;73.67;98622.70;25038;1318;3055211;-70
2022/09/19 04:19:18;;;;;;;2.70;1.00;;;;;;;9.63;73.84;98630.40;24995;1318;3026809;-68
2022/09/19 04:22:12;;;;;;;2.70;0.80;;;;;;;10.34;72.58;98635.91;25000;1318;3070163;-67
2022/09/19 04:24:51;;;;;;;5.60;1.50;;;;;;;10.75;70.14;98632.91;25017;1318;3049333;-69
2022/09/19 04:27:24;;;;;;;3.40;1.30;;;;;;;10.70;70.19;98638.33;25067;1318;3052333;-68
2022/09/19 04:29:53;;;;;;;5.80;1.80;;;;;;;10.37;71.21;98636.52;24995;1318;3027001;-67
2022/09/19 04:32:22;;;;;;;4.40;1.60;;;;;;;10.18;71.74;98645.44;25020;1318;3048834;-69
2022/09/19 04:34:55;;;;;;;2.90;1.80;;;;;;;10.07;72.18;98648.67;25075;1318;3026791;-65
2022/09/19 04:37:29;;;;;;;4.60;1.60;;;;;;;9.99;72.28;98645.16;25013;1319;3026787;-70
2022/09/19 04:40:08;;;;;;;3.40;1.60;;;;;;;9.86;73.06;98650.85;24999;1321;3058121;-64
2022/09/19 04:42:38;;;;;;;3.90;1.80;;;;;;;9.74;74.45;98653.27;25004;1320;3027967;-65
2022/09/19 04:45:07;;;;;;;3.50;1.70;;;;;;;10.37;72.57;98651.73;25102;1318;3027282;-66
2022/09/19 04:47:54;;;;;;;5.60;1.70;;;;;;;10.80;70.53;98654.59;25061;1321;3058697;-69
2022/09/19 04:50:23;;;;;;;3.60;1.70;;;;;;;10.75;70.30;98659.33;25021;1318;3026613;-67
2022/09/19 04:52:57;;;;;;;4.60;1.30;;;;;;;10.56;71.02;98653.72;25044;1318;3052548;-69
2022/09/19 04:55:27;;;;;;;3.00;1.60;;;;;;;10.30;72.14;98656.14;25015;1321;3028804;-64
2022/09/19 04:58:00;;;;;;;4.60;1.70;;;;;;;10.15;72.66;98661.89;25036;1320;3048498;-65
2022/09/19 05:00:38;;;;;;;4.70;2.30;;;;;;;10.25;72.29;98675.02;25052;1321;3026755;-65
2022/09/19 05:03:11;;;;;;;3.00;1.90;;;;;;;10.31;72.11;98684.77;25041;1320;3054317;-65
2022/09/19 05:05:50;;;;;;;1.90;1.10;;;;;;;10.33;72.38;98690.04;25027;1321;3068869;-65
2022/09/19 05:08:27;;;;;;;4.80;1.40;;;;;;;10.94;70.87;98702.25;24975;1321;3048463;-64
2022/09/19 05:11:02;;;;;;;4.40;2.30;;;;;;;11.27;69.39;98694.58;25035;1321;3054937;-65
2022/09/19 05:13:34;;;;;;;2.50;1.40;;;;;;;11.30;68.72;98697.66;25102;1319;3026496;-68
2022/09/19 05:16:03;;;;;;;3.90;1.60;;;;;;;11.14;69.07;98710.59;25011;1319;3027730;-67
2022/09/19 05:18:37;;;;;;;5.80;1.80;;;;;;;11.17;68.70;98709.34;25001;1321;3027617;-65
2022/09/19 05:21:12;;;;;;;3.80;1.90;;;;;;;10.99;69.62;98710.85;25028;1318;3027223;-66
2022/09/19 05:23:41;;;;;;;;;;;;;;;11.07;69.14;98722.16;24998;1318;3053207;-68
2022/09/19 05:26:16;;;;;;;3.80;1.70;;;;;;;10.84;69.92;98720.70;25045;1319;3027503;-69
2022/09/19 05:28:46;;;;;;;3.80;2.10;;;;;;;10.93;69.85;98723.23;24983;1318;3055668;-70
2022/09/19 05:31:18;;;;;;;6.60;2.00;;;;;;;10.95;69.57;98726.17;25015;1320;3026468;-66
2022/09/19 05:33:50;;;;;;;2.90;1.70;;;;;;;10.96;69.35;98728.92;25046;1320;3071183;-69
2022/09/19 05:36:22;;;;;;;5.40;2.00;;;;;;;11.02;69.20;98748.66;25082;1319;3026976;-66
2022/09/19 05:39:10;;;;;;;2.60;1.00;;;;;;;11.17;69.08;98738.89;25004;1321;3054438;-68
2022/09/19 05:41:58;;;;;;;8.20;1.40;;;;;;;12.01;67.02;98726.41;24938;1324;3052823;-66
2022/09/19 05:44:29;;;;;;;2.90;1.40;;;;;;;12.55;64.96;98735.23;25010;1319;3026262;-67
2022/09/19 05:47:01;;;;;;;3.40;1.50;;;;;;;12.41;64.72;98739.30;25006;1318;3026555;-68
2022/09/19 05:49:32;;;;;;;5.20;1.90;;;;;;;12.15;65.49;98745.23;25024;1319;3027200;-67
2022/09/19 05:54:52;;;;;;;3.00;1.70;;;;;;;12.15;65.09;98758.34;25001;1319;3072923;-67
2022/09/19 05:57:51;;;;;;;2.80;1.70;;;;;;;12.06;64.94;98771.48;25032;1321;3049000;-66
2022/09/19 06:00:21;;;;;;;4.10;1.60;;;;;;;11.89;65.53;98765.61;25075;1321;3052325;-65
2022/09/19 06:02:56;;;;;;;6.00;1.60;;;;;;;11.89;65.91;98770.20;25079;1318;3027897;-67
2022/09/19 06:05:26;;;;;;;9.70;2.20;;;;;;;11.91;65.47;98787.56;25021;1318;3058861;-68
2022/09/19 06:07:57;;;;;;;13.30;2.80;;;;;;;11.89;65.64;98774.39;25042;1321;3026608;-65
2022/09/19 06:10:27;;;;;;;4.80;2.10;;;;;;;11.89;65.97;98797.42;24906;1320;3052779;-70
2022/09/19 06:12:58;;;;;;;3.90;2.00;;;;;;;11.95;65.59;98788.67;25059;1321;3026740;-66
2022/09/19 06:15:28;;;;;;;3.90;2.00;;;;;;;12.07;65.36;98786.84;25034;1321;3026814;-66
2022/09/19 06:17:58;;;;;;;3.00;1.90;;;;;;;12.18;64.88;98793.95;25058;1320;3026397;-68
2022/09/19 06:20:41;;;;;;;6.40;2.20;;;;;;;12.19;64.43;98802.96;25048;1321;3051456;-69
2022/09/19 06:23:12;;;;;;;2.60;1.50;;;;;;;12.05;64.35;98817.64;25069;1320;3026700;-68
2022/09/19 06:25:41;;;;;;;5.10;1.90;;;;;;;12.14;63.94;98805.83;25030;1319;3027634;-65
2022/09/19 06:28:14;;;;;;;3.30;1.80;;;;;;;12.22;63.80;98810.14;25033;1321;3051104;-68
2022/09/19 06:30:53;;;;;;;4.40;1.70;;;;;;;12.27;63.73;98817.66;25008;1319;3068916;-64
2022/09/19 06:33:37;;;;;;;13.00;2.20;;;;;;;12.34;63.40;98813.63;24954;1321;3047969;-68
2022/09/19 06:36:14;;;;;;;6.00;1.70;;;;;;;12.43;63.10;98821.30;24981;1321;3054925;-66
2022/09/19 06:38:43;;;;;;;9.30;2.40;;;;;;;12.45;62.95;98818.00;24998;1321;3027096;-65
2022/09/19 06:41:39;;;;;;;4.10;1.90;;;;;;;12.48;62.13;98827.45;25028;1321;3051741;-65
2022/09/19 06:44:25;;;;;;;3.30;1.70;;;;;;;12.67;61.95;98833.52;25054;1320;3051137;-66
2022/09/19 06:47:06;;;;;;;3.10;1.80;;;;;;;12.74;61.86;98826.60;25030;1320;3055413;-67
2022/09/19 06:49:56;;;;;;;5.40;2.70;;;;;;;12.68;61.55;98838.17;24922;1321;3059512;-67
2022/09/19 06:52:33;;;;;;;4.20;2.00;;;;;;;12.79;61.54;98818.13;25052;1318;3050095;-66
2022/09/19 06:55:04;;;;;;;3.70;1.80;;;;;;;12.86;60.64;98836.56;25030;1318;3027935;-69
2022/09/19 06:57:35;;;;;;;4.20;1.80;;;;;;;12.87;59.67;98836.27;25027;1320;3028674;-67
2022/09/19 07:00:05;;;;;;;2.70;1.70;;;;;;;12.85;60.98;98833.98;25006;1321;3026674;-67
2022/09/19 07:02:36;;;;;;;3.90;1.50;;;;;;;12.98;60.53;98846.84;25012;1321;3053368;-66
2022/09/19 07:05:06;;;;;;;3.60;1.40;;;;;;;13.09;60.03;98852.66;25017;1318;3027607;-66
2022/09/19 07:07:43;;;;;;;4.00;1.60;;;;;;;13.03;59.88;98848.36;24996;1318;3071434;-69
2022/09/19 07:10:13;;;;;;;5.90;1.80;;;;;;;13.21;59.65;98846.54;25047;1319;3026662;-67
2022/09/19 07:13:13;;;;;;;2.10;1.30;;;;;;;13.41;58.55;98854.35;25010;1320;3052857;-67
2022/09/19 07:15:52;;;;;;;2.70;1.50;;;;;;;13.34;58.42;98855.04;25007;1321;3057365;-67
2022/09/19 07:18:21;;;;;;;3.50;1.70;;;;;;;13.35;58.36;98868.52;25043;1321;3026307;-65
2022/09/19 07:20:53;;;;;;;3.00;1.10;;;;;;;13.33;58.13;98870.25;25009;1318;3026886;-66
2022/09/19 07:23:31;;;;;;;4.80;1.60;;;;;;;13.52;58.01;98862.92;25031;1319;3052865;-68
2022/09/19 07:26:14;;;;;;;3.10;1.40;;;;;;;13.64;57.08;98871.05;25024;1320;3054582;-67
2022/09/19 07:28:43;;;;;;;3.10;1.20;;;;;;;13.53;56.67;98881.81;24989;1319;3026673;-66
2022/09/19 07:31:12;;;;;;;6.80;1.10;;;;;;;13.63;56.65;98874.31;25040;1321;3026749;-68
2022/09/19 07:33:43;;;;;;;1.80;1.10;;;;;;;13.77;56.29;98882.13;25032;1319;3027354;-67
2022/09/19 07:36:12;;;;;;;1.60;1.00;;;;;;;13.90;56.44;98875.61;25024;1318;3029880;-64
2022/09/19 07:38:43;;;;;;;1.90;1.00;;;;;;;14.08;55.86;98882.16;25029;1318;3048349;-64
2022/09/19 07:41:46;;;;;;;3.10;1.00;;;;;;;14.16;54.43;98892.13;24909;1321;3055503;-67
2022/09/19 07:44:36;;;;;;;1.30;0.80;;;;;;;14.16;54.43;98891.95;24236;1324;4646231;-66
2022/09/19 07:47:44;;;;;;;2.70;1.00;;;;;;;14.33;53.88;98895.11;25058;1321;3049695;-67
2022/09/19 07:50:39;;;;;;;1.80;0.80;;;;;;;14.39;53.17;98897.39;24986;1321;3051797;-67
2022/09/19 07:53:22;;;;;;;1.10;0.80;;;;;;;14.34;52.81;98902.54;25015;1319;3052459;-66
2022/09/19 07:55:52;;;;;;;0.90;0.60;;;;;;;14.33;52.68;98895.20;25018;1318;3027703;-69
2022/09/19 07:58:23;;;;;;;5.10;1.10;;;;;;;14.42;52.68;98881.67;25011;1321;3026649;-68
2022/09/19 08:01:00;;;;;;;3.60;1.10;;;;;;;14.61;52.08;98900.63;25023;1321;3053223;-67
2022/09/19 08:03:49;;;;;;;3.60;1.00;;;;;;;14.69;51.65;98894.20;25081;1321;3054474;-68
2022/09/19 08:06:25;;;;;;;1.50;0.50;;;;;;;14.69;51.36;98898.20;25040;1319;3071533;-66
2022/09/19 08:08:55;;;;;;;2.20;0.80;;;;;;;14.74;50.42;98883.16;25161;1319;3026875;-66
2022/09/19 08:11:43;;;;;;;0.60;0.50;;;;;;;14.86;49.92;98908.71;25084;1318;3052242;-65
2022/09/19 08:14:13;;;;;;;1.00;0.50;;;;;;;15.03;49.32;98881.34;25031;1322;3026393;-66
2022/09/19 08:16:43;;;;;;;1.00;0.50;;;;;;;15.03;48.73;98889.59;24981;1321;3027860;-67
2022/09/19 08:19:13;;;;;;;0.70;0.70;;;;;;;15.12;47.95;98898.30;24993;1319;3052590;-70
2022/09/19 08:21:43;;;;;;;2.30;0.60;;;;;;;15.02;47.47;98900.44;25074;1320;3026779;-69
2022/09/19 08:24:13;;;;;;;1.80;0.50;;;;;;;15.14;47.58;98882.45;25016;1319;3027416;-68
2022/09/19 08:26:42;;;;;;;2.50;0.60;;;;;;;15.29;47.39;98898.54;25035;1322;3026617;-68
2022/09/19 08:29:12;;;;;;;0.90;0.60;;;;;;;15.26;46.89;98898.38;25091;1321;3051952;-67
2022/09/19 08:31:58;;;;;;;4.10;0.70;;;;;;;15.33;47.28;98885.20;25043;1318;3059086;-67
2022/09/19 08:34:27;;;;;;;2.10;0.80;;;;;;;15.46;47.17;98894.77;24982;1318;3028588;-70
2022/09/19 08:37:00;;;;;;;4.20;0.50;;;;;;;15.60;46.48;98897.23;25081;1318;3026260;-67
2022/09/19 08:39:29;;;;;;;0.60;0.40;;;;;;;15.73;45.97;98900.14;25032;1318;3057387;-66
2022/09/19 08:42:09;;;;;;;0.90;0.60;;;;;;;15.71;44.41;98906.70;25060;1318;3026119;-68
2022/09/19 08:44:54;;;;;;;2.90;0.70;;;;;;;15.71;44.19;98904.70;24996;1321;3055282;-65
2022/09/19 08:47:23;;;;;;;0.70;0.40;;;;;;;15.74;44.15;98930.41;24979;1324;3051118;-64
2022/09/19 08:50:12;;;;;;;0.50;0.30;;;;;;;15.67;44.40;98928.23;25004;1318;3026750;-66
2022/09/19 08:52:44;;;;;;;2.20;0.60;;;;;;;15.79;44.28;98937.54;25104;1319;3049214;-66
2022/09/19 08:55:18;;;;;;;0.90;0.50;;;;;;;15.72;44.30;98913.80;25014;1318;3026249;-65
2022/09/19 08:58:11;;;;;;;1.40;0.60;;;;;;;15.79;44.19;98907.34;25020;1319;3054336;-68
2022/09/19 09:00:59;;;;;;;1.80;0.50;;;;;;;15.70;43.70;98905.68;25034;1318;3060524;-67
2022/09/19 09:03:33;;;;;;;2.20;0.50;;;;;;;15.90;43.50;98908.85;25025;1321;3026461;-68
2022/09/19 09:07:45;;;;;;;1.90;0.80;;;;;;;16.15;43.15;98910.99;31495;1320;3026207;-68
2022/09/19 09:10:53;;;;;;;4.30;0.70;;;;;;;16.60;42.47;98900.40;24944;1322;3054623;-68
2022/09/19 09:13:50;;;;;;;4.20;0.80;;;;;;;16.90;42.02;98908.20;24968;1322;3052662;-66
2022/09/19 09:16:24;;;;;;;5.10;0.90;;;;;;;16.58;41.91;98899.04;25041;1319;3057295;-66
2022/09/19 09:19:08;;;;;;;5.00;0.50;;;;;;;16.52;42.62;98901.19;25084;1320;3050455;-66
2022/09/19 09:21:36;;;;;;;5.00;0.50;;;;;;;16.54;41.82;98899.92;24425;1319;3052997;-65
2022/09/19 09:24:13;;;;;;;1.40;0.70;;;;;;;16.67;41.66;98931.23;25019;1319;3056613;-66
2022/09/19 09:26:54;;;;;;;1.70;0.60;;;;;;;16.82;40.94;98934.43;25101;1319;3051973;-67
2022/09/19 09:29:29;;;;;;;1.90;0.50;;;;;;;16.81;41.14;98908.88;25018;1319;3026766;-66
2022/09/19 09:32:30;;;;;;;1.70;0.50;;;;;;;16.94;41.00;98926.94;25075;1319;3052552;-67
2022/09/19 09:35:29;;;;;;;3.90;0.70;;;;;;;16.83;41.07;98958.52;25018;1319;3071077;-67
2022/09/19 09:38:25;;;;;;;2.40;0.70;;;;;;;16.61;41.34;98940.45;25093;1319;3051803;-67
2022/09/19 09:41:45;;;;;;;2.30;0.60;;;;;;;16.66;41.72;98929.73;25172;1318;3052695;-68
2022/09/19 09:44:44;;;;;;;0.50;0.40;;;;;;;16.56;41.98;98935.26;25095;1319;3052912;-66
2022/09/19 09:47:21;;;;;;;1.10;0.40;;;;;;;16.59;41.25;98926.33;25132;1319;3057471;-68
2022/09/19 09:49:56;;;;;;;1.40;0.60;;;;;;;16.52;41.31;98936.36;25140;1319;3049408;-65
2022/09/19 09:52:35;;;;;;;1.40;0.80;;;;;;;16.66;41.30;98951.33;24980;1322;3052678;-69
2022/09/19 09:58:37;;;;;;;2.70;0.70;;;;;;;16.41;41.98;98936.67;25073;1319;3069531;-66
2022/09/19 10:04:35;;;;;;;2.40;0.60;;;;;;;16.83;41.25;98943.14;25080;1319;3052388;-68
2022/09/19 10:07:45;;;;;;;1.20;0.70;;;;;;;16.79;40.65;98950.11;25076;1319;3055513;-68
2022/09/19 10:10:18;;;;;;;2.10;0.70;;;;;;;16.92;40.08;98935.66;25012;1322;3056668;-65
2022/09/19 10:12:57;;;;;;;4.10;0.90;;;;;;;17.25;39.50;98937.26;25027;1322;3049478;-67
2022/09/19 10:15:26;;;;;;;2.60;0.60;;;;;;;17.29;39.28;98948.05;25036;1319;3055643;-67
2022/09/19 10:18:06;;;;;;;1.00;0.60;;;;;;;17.30;39.97;98938.89;25148;1319;3051332;-65
2022/09/19 10:20:45;;;;;;;2.50;0.60;;;;;;;17.40;39.89;98942.67;25143;1314;3067763;-66
2022/09/19 10:23:25;;;;;;;1.70;0.60;;;;;;;17.18;39.74;98941.33;25181;1316;3051644;-65
2022/09/19 10:26:00;;;;;;;2.10;0.60;;;;;;;17.26;39.93;98943.15;25157;1315;3052586;-67
2022/09/19 10:28:36;;;;;;;2.70;0.70;;;;;;;17.42;39.29;98938.60;25188;1316;3052441;-66
2022/09/19 10:31:32;;;;;;;3.30;0.60;;;;;;;17.59;38.68;98948.83;25199;1316;3056552;-66
2022/09/19 10:34:06;;;;;;;1.70;0.60;;;;;;;17.64;38.90;98943.87;25147;1316;3048649;-68
2022/09/19 10:36:44;;;;;;;1.70;0.70;;;;;;;17.61;38.56;98941.16;25148;1318;3026482;-68
2022/09/19 10:39:14;;;;;;;3.40;0.80;;;;;;;17.62;39.11;98935.98;25158;1319;3051230;-65
2022/09/19 10:41:44;;;;;;;2.40;0.80;;;;;;;17.55;39.54;98952.58;25141;1315;3027041;-66
2022/09/19 10:44:23;;;;;;;1.30;0.80;;;;;;;17.48;39.65;98960.14;25161;1315;3026434;-68
2022/09/19 10:46:56;;;;;;;1.30;0.80;;;;;;;17.50;39.95;98968.32;25108;1315;3050820;-70
2022/09/19 10:49:46;;;;;;;1.70;0.80;;;;;;;17.44;39.51;98959.63;25189;1316;3070617;-67
2022/09/19 10:52:30;;;;;;;1.20;0.60;;;;;;;17.26;39.43;98958.55;25138;1316;3049476;-67
2022/09/19 10:55:00;;;;;;;2.10;0.60;;;;;;;17.39;38.53;98947.73;25065;1316;3052793;-70
2022/09/19 10:57:45;;;;;;;0.60;0.50;;;;;;;17.49;38.48;98952.98;25209;1316;3027995;-69
2022/09/19 11:00:25;;;;;;;2.60;0.60;;;;;;;17.48;38.05;98974.69;25139;1316;3056519;-68
2022/09/19 11:03:05;;;;;;;2.00;0.50;;;;;;;17.58;37.72;98975.70;25061;1316;3050163;-67
2022/09/19 11:05:36;;;;;;;2.80;0.50;;;;;;;17.67;37.74;98954.09;25144;1316;3053251;-69
2022/09/19 11:08:22;;;;;;;1.70;0.80;;;;;;;18.00;37.15;98952.08;25132;1316;3026616;-70
2022/09/19 11:10:51;;;;;;;0.70;0.60;;;;;;;18.18;37.32;98963.38;25127;1316;3070751;-71
2022/09/19 11:13:35;;;;;;;0.90;0.60;;;;;;;18.17;36.77;98970.44;25215;1316;3051876;-69
2022/09/19 11:16:18;;;;;;;1.30;0.70;;;;;;;18.13;37.04;98954.39;25065;1316;3027041;-66
2022/09/19 11:18:48;;;;;;;1.30;0.40;;;;;;;18.36;37.41;98968.45;25215;1315;3052938;-68
2022/09/19 11:21:45;;;;;;;1.40;0.60;;;;;;;18.43;36.50;98972.02;25017;1318;3026032;-65
2022/09/19 11:24:39;;;;;;;0.80;0.40;;;;;;;18.46;36.29;98979.89;25168;1316;3049406;-66
2022/09/19 11:27:28;;;;;;;1.90;0.70;;;;;;;18.45;36.40;98981.48;25179;1315;3053092;-66
2022/09/19 11:30:14;;;;;;;2.80;0.70;;;;;;;18.49;35.73;98970.06;25144;1316;3050211;-67
2022/09/19 11:33:09;;;;;;;1.30;0.70;;;;;;;18.67;36.18;98959.01;25153;1315;3068395;-65
2022/09/19 11:36:08;;;;;;;1.40;0.70;;;;;;;18.87;36.20;98964.73;25139;1316;3052149;-64
2022/09/19 11:38:41;;;;;;;1.40;0.40;;;;;;;18.81;36.05;98977.77;25130;1319;3052409;-68
2022/09/19 11:41:54;;;;;;;1.10;0.50;;;;;;;18.70;36.05;98969.84;25116;1316;3052128;-66
2022/09/19 11:44:36;;;;;;;1.00;0.60;;;;;;;18.89;35.98;98981.44;25175;1318;3056862;-65
2022/09/19 11:47:19;;;;;;;0.90;0.40;;;;;;;18.83;36.10;98982.59;25191;1316;3049355;-67
2022/09/19 11:50:20;;;;;;;1.20;0.60;;;;;;;18.76;36.44;98977.11;25241;1316;3053016;-67
2022/09/19 11:53:10;;;;;;;2.00;0.50;;;;;;;18.81;36.25;98987.94;25148;1315;3051907;-65
2022/09/19 11:56:18;;;;;;;1.80;1.10;;;;;;;18.85;36.36;98973.35;25181;1318;3070076;-65
2022/09/19 11:59:07;;;;;;;1.00;0.60;;;;;;;18.84;36.02;98977.63;25162;1316;3048925;-67
2022/09/19 12:01:38;;;;;;;0.70;0.40;;;;;;;19.01;36.07;98978.80;25204;1316;3054401;-66
2022/09/19 12:04:36;;;;;;;3.10;0.70;;;;;;;19.02;35.82;98972.15;25122;1316;3026747;-68
2022/09/19 12:07:07;;;;;;;3.40;0.60;;;;;;;19.29;35.58;98973.27;25118;1316;3056571;-66
2022/09/19 12:09:46;;;;;;;1.20;0.70;;;;;;;19.48;35.17;98966.05;25138;1316;3026245;-66
2022/09/19 12:12:21;;;;;;;0.90;0.50;;;;;;;19.52;35.05;98982.21;25150;1316;3052851;-66
2022/09/19 12:15:21;;;;;;;3.00;0.60;;;;;;;19.50;34.62;98976.02;25201;1316;3053456;-68
2022/09/19 12:18:07;;;;;;;1.60;0.50;;;;;;;19.72;34.43;98977.39;25183;1315;3071374;-66
2022/09/19 12:20:45;;;;;;;3.50;0.60;;;;;;;19.88;33.88;98972.85;25209;1316;3051936;-65
2022/09/19 12:26:58;;;;;;;1.80;0.60;;;;;;;19.67;33.62;98980.02;25164;1316;3054695;-68